sensor_id;sensor_type;location;lat;lon;timestamp;P1;durP1;ratioP1;P2;durP2;ratioP2
59486;SDS011;45298;54.918;73.504;2023-03-31T00:01:26;20.77;;;6.80;;
59486;SDS011;45298;54.918;73.504;2023-03-31T00:03:56;19.05;;;6.15;;
59486;SDS011;45298;54.918;73.504;2023-03-31T00:06:33;17.25;;;6.07;;
59486;SDS011;45298;54.918;73.504;2023-03-31T00:09:05;20.25;;;8.38;;
59486;SDS011;45298;54.918;73.504;2023-03-31T00:11:39;27.60;;;10.32;;
59486;SDS011;45298;54.918;73.504;2023-03-31T00:14:08;137.02;;;34.67;;
59486;SDS011;45298;54.918;73.504;2023-03-31T00:16:38;361.42;;;89.05;;
59486;SDS011;45298;54.918;73.504;2023-03-31T00:19:08;138.02;;;36.28;;
59486;SDS011;45298;54.918;73.504;2023-03-31T00:21:45;166.88;;;46.30;;
59486;SDS011;45298;54.918;73.504;2023-03-31T00:24:17;31.08;;;10.15;;
59486;SDS011;45298;54.918;73.504;2023-03-31T00:26:45;22.95;;;7.88;;
59486;SDS011;45298;54.918;73.504;2023-03-31T00:29:14;79.28;;;26.30;;
59486;SDS011;45298;54.918;73.504;2023-03-31T00:31:43;248.60;;;73.93;;
59486;SDS011;45298;54.918;73.504;2023-03-31T00:34:12;167.13;;;48.97;;
59486;SDS011;45298;54.918;73.504;2023-03-31T00:36:41;48.30;;;18.75;;
59486;SDS011;45298;54.918;73.504;2023-03-31T00:41:45;52.28;;;17.58;;
59486;SDS011;45298;54.918;73.504;2023-03-31T00:44:16;104.68;;;31.55;;
59486;SDS011;45298;54.918;73.504;2023-03-31T00:51:56;320.45;;;63.88;;
59486;SDS011;45298;54.918;73.504;2023-03-31T00:54:32;276.52;;;57.17;;
59486;SDS011;45298;54.918;73.504;2023-03-31T00:57:03;209.60;;;40.03;;
59486;SDS011;45298;54.918;73.504;2023-03-31T00:59:38;215.95;;;56.50;;
59486;SDS011;45298;54.918;73.504;2023-03-31T01:02:12;114.13;;;32.70;;
59486;SDS011;45298;54.918;73.504;2023-03-31T01:04:45;55.15;;;19.45;;
59486;SDS011;45298;54.918;73.504;2023-03-31T01:07:30;75.15;;;23.70;;
59486;SDS011;45298;54.918;73.504;2023-03-31T01:10:07;110.10;;;32.63;;
59486;SDS011;45298;54.918;73.504;2023-03-31T01:12:38;59.92;;;19.55;;
59486;SDS011;45298;54.918;73.504;2023-03-31T01:15:09;129.30;;;35.97;;
59486;SDS011;45298;54.918;73.504;2023-03-31T01:17:38;95.65;;;29.42;;
59486;SDS011;45298;54.918;73.504;2023-03-31T01:28:19;165.75;;;46.95;;
59486;SDS011;45298;54.918;73.504;2023-03-31T01:42:31;198.65;;;45.15;;
59486;SDS011;45298;54.918;73.504;2023-03-31T01:47:44;52.92;;;17.42;;
59486;SDS011;45298;54.918;73.504;2023-03-31T01:50:23;84.47;;;24.48;;
59486;SDS011;45298;54.918;73.504;2023-03-31T01:52:56;94.07;;;27.45;;
59486;SDS011;45298;54.918;73.504;2023-03-31T01:55:39;69.05;;;20.67;;
59486;SDS011;45298;54.918;73.504;2023-03-31T01:58:38;40.65;;;13.50;;
59486;SDS011;45298;54.918;73.504;2023-03-31T02:01:15;167.27;;;36.60;;
59486;SDS011;45298;54.918;73.504;2023-03-31T02:03:54;29.58;;;11.50;;
59486;SDS011;45298;54.918;73.504;2023-03-31T02:06:30;31.75;;;11.52;;
59486;SDS011;45298;54.918;73.504;2023-03-31T02:09:11;43.85;;;16.90;;
59486;SDS011;45298;54.918;73.504;2023-03-31T02:11:44;26.42;;;9.38;;
59486;SDS011;45298;54.918;73.504;2023-03-31T02:14:17;29.05;;;12.88;;
59486;SDS011;45298;54.918;73.504;2023-03-31T02:16:54;23.55;;;10.18;;
59486;SDS011;45298;54.918;73.504;2023-03-31T02:19:28;24.25;;;10.55;;
59486;SDS011;45298;54.918;73.504;2023-03-31T02:22:01;12.75;;;5.55;;
59486;SDS011;45298;54.918;73.504;2023-03-31T02:24:33;12.40;;;5.40;;
59486;SDS011;45298;54.918;73.504;2023-03-31T02:29:50;12.68;;;4.40;;
59486;SDS011;45298;54.918;73.504;2023-03-31T02:32:40;8.45;;;4.10;;
59486;SDS011;45298;54.918;73.504;2023-03-31T02:35:13;7.60;;;3.30;;
59486;SDS011;45298;54.918;73.504;2023-03-31T02:37:44;9.00;;;3.88;;
59486;SDS011;45298;54.918;73.504;2023-03-31T02:40:20;24.05;;;9.90;;
59486;SDS011;45298;54.918;73.504;2023-03-31T02:42:50;14.48;;;5.20;;
59486;SDS011;45298;54.918;73.504;2023-03-31T02:48:19;14.40;;;6.40;;
59486;SDS011;45298;54.918;73.504;2023-03-31T02:51:20;25.88;;;11.70;;
59486;SDS011;45298;54.918;73.504;2023-03-31T02:56:34;7.72;;;2.78;;
59486;SDS011;45298;54.918;73.504;2023-03-31T03:02:06;4.85;;;2.35;;
59486;SDS011;45298;54.918;73.504;2023-03-31T03:04:43;4.80;;;1.80;;
59486;SDS011;45298;54.918;73.504;2023-03-31T03:07:38;4.55;;;2.08;;
59486;SDS011;45298;54.918;73.504;2023-03-31T03:13:41;7.13;;;2.70;;
59486;SDS011;45298;54.918;73.504;2023-03-31T03:16:45;5.38;;;1.77;;
59486;SDS011;45298;54.918;73.504;2023-03-31T03:19:20;7.65;;;3.05;;
59486;SDS011;45298;54.918;73.504;2023-03-31T03:21:51;4.68;;;1.67;;
59486;SDS011;45298;54.918;73.504;2023-03-31T03:24:21;5.57;;;1.83;;
59486;SDS011;45298;54.918;73.504;2023-03-31T03:26:50;8.48;;;3.80;;
59486;SDS011;45298;54.918;73.504;2023-03-31T03:29:19;11.57;;;5.00;;
59486;SDS011;45298;54.918;73.504;2023-03-31T03:31:48;6.55;;;2.92;;
59486;SDS011;45298;54.918;73.504;2023-03-31T03:34:17;6.00;;;1.88;;
59486;SDS011;45298;54.918;73.504;2023-03-31T03:36:47;4.22;;;1.75;;
59486;SDS011;45298;54.918;73.504;2023-03-31T03:39:19;3.03;;;1.20;;
59486;SDS011;45298;54.918;73.504;2023-03-31T03:41:48;2.28;;;1.20;;
59486;SDS011;45298;54.918;73.504;2023-03-31T03:44:19;5.78;;;1.60;;
59486;SDS011;45298;54.918;73.504;2023-03-31T03:46:48;2.45;;;0.95;;
59486;SDS011;45298;54.918;73.504;2023-03-31T03:49:17;3.95;;;1.30;;
59486;SDS011;45298;54.918;73.504;2023-03-31T03:51:47;4.97;;;2.40;;
59486;SDS011;45298;54.918;73.504;2023-03-31T03:54:16;3.38;;;1.85;;
59486;SDS011;45298;54.918;73.504;2023-03-31T03:56:46;4.90;;;1.40;;
59486;SDS011;45298;54.918;73.504;2023-03-31T03:59:15;7.40;;;2.50;;
59486;SDS011;45298;54.918;73.504;2023-03-31T04:01:44;18.25;;;7.65;;
59486;SDS011;45298;54.918;73.504;2023-03-31T04:04:14;7.63;;;2.63;;
59486;SDS011;45298;54.918;73.504;2023-03-31T04:06:43;7.20;;;3.58;;
59486;SDS011;45298;54.918;73.504;2023-03-31T04:09:12;4.72;;;2.17;;
59486;SDS011;45298;54.918;73.504;2023-03-31T04:11:42;3.15;;;1.25;;
59486;SDS011;45298;54.918;73.504;2023-03-31T04:14:11;4.72;;;1.60;;
59486;SDS011;45298;54.918;73.504;2023-03-31T04:16:40;3.13;;;1.58;;
59486;SDS011;45298;54.918;73.504;2023-03-31T04:19:09;8.00;;;4.00;;
59486;SDS011;45298;54.918;73.504;2023-03-31T04:21:40;4.93;;;2.58;;
59486;SDS011;45298;54.918;73.504;2023-03-31T04:24:12;5.40;;;2.10;;
59486;SDS011;45298;54.918;73.504;2023-03-31T04:26:43;2.50;;;1.20;;
59486;SDS011;45298;54.918;73.504;2023-03-31T04:29:13;4.20;;;1.38;;
59486;SDS011;45298;54.918;73.504;2023-03-31T04:31:47;3.70;;;2.22;;
59486;SDS011;45298;54.918;73.504;2023-03-31T04:34:19;4.40;;;2.15;;
59486;SDS011;45298;54.918;73.504;2023-03-31T04:36:49;5.05;;;1.95;;
59486;SDS011;45298;54.918;73.504;2023-03-31T04:39:18;2.95;;;1.40;;
59486;SDS011;45298;54.918;73.504;2023-03-31T04:41:58;2.08;;;1.20;;
59486;SDS011;45298;54.918;73.504;2023-03-31T04:44:28;2.33;;;1.20;;
59486;SDS011;45298;54.918;73.504;2023-03-31T04:46:57;2.83;;;1.40;;
59486;SDS011;45298;54.918;73.504;2023-03-31T04:49:29;2.95;;;1.40;;
59486;SDS011;45298;54.918;73.504;2023-03-31T04:52:00;2.75;;;1.30;;
59486;SDS011;45298;54.918;73.504;2023-03-31T04:54:30;4.65;;;1.55;;
59486;SDS011;45298;54.918;73.504;2023-03-31T04:57:07;3.10;;;1.45;;
59486;SDS011;45298;54.918;73.504;2023-03-31T04:59:41;2.75;;;1.52;;
59486;SDS011;45298;54.918;73.504;2023-03-31T05:02:10;8.45;;;2.70;;
59486;SDS011;45298;54.918;73.504;2023-03-31T05:04:42;4.90;;;1.70;;
59486;SDS011;45298;54.918;73.504;2023-03-31T05:07:11;2.75;;;1.10;;
59486;SDS011;45298;54.918;73.504;2023-03-31T05:09:40;18.98;;;1.90;;
59486;SDS011;45298;54.918;73.504;2023-03-31T05:12:09;12.40;;;4.78;;
59486;SDS011;45298;54.918;73.504;2023-03-31T05:14:38;2.75;;;1.00;;
59486;SDS011;45298;54.918;73.504;2023-03-31T05:17:07;5.70;;;2.40;;
59486;SDS011;45298;54.918;73.504;2023-03-31T05:19:37;11.02;;;5.13;;
59486;SDS011;45298;54.918;73.504;2023-03-31T05:22:06;27.23;;;10.35;;
59486;SDS011;45298;54.918;73.504;2023-03-31T05:24:35;2.83;;;1.10;;
59486;SDS011;45298;54.918;73.504;2023-03-31T05:27:04;7.18;;;3.00;;
59486;SDS011;45298;54.918;73.504;2023-03-31T05:29:33;4.45;;;1.63;;
59486;SDS011;45298;54.918;73.504;2023-03-31T05:32:02;4.20;;;1.33;;
59486;SDS011;45298;54.918;73.504;2023-03-31T05:34:31;6.05;;;2.20;;
59486;SDS011;45298;54.918;73.504;2023-03-31T05:37:00;2.60;;;1.10;;
59486;SDS011;45298;54.918;73.504;2023-03-31T05:39:29;7.70;;;1.88;;
59486;SDS011;45298;54.918;73.504;2023-03-31T05:42:00;16.35;;;6.75;;
59486;SDS011;45298;54.918;73.504;2023-03-31T05:44:29;3.03;;;1.10;;
59486;SDS011;45298;54.918;73.504;2023-03-31T05:46:58;7.70;;;2.67;;
59486;SDS011;45298;54.918;73.504;2023-03-31T05:49:27;1.70;;;0.80;;
59486;SDS011;45298;54.918;73.504;2023-03-31T05:51:55;2.17;;;1.13;;
59486;SDS011;45298;54.918;73.504;2023-03-31T05:54:25;1.60;;;0.90;;
59486;SDS011;45298;54.918;73.504;2023-03-31T05:56:55;9.73;;;4.00;;
59486;SDS011;45298;54.918;73.504;2023-03-31T05:59:24;3.78;;;1.15;;
59486;SDS011;45298;54.918;73.504;2023-03-31T06:01:53;2.72;;;1.08;;
59486;SDS011;45298;54.918;73.504;2023-03-31T06:04:22;7.68;;;2.70;;
59486;SDS011;45298;54.918;73.504;2023-03-31T06:06:51;8.73;;;3.33;;
59486;SDS011;45298;54.918;73.504;2023-03-31T06:09:21;6.65;;;2.70;;
59486;SDS011;45298;54.918;73.504;2023-03-31T06:11:50;3.13;;;0.95;;
59486;SDS011;45298;54.918;73.504;2023-03-31T06:14:18;2.70;;;0.90;;
59486;SDS011;45298;54.918;73.504;2023-03-31T06:16:47;2.15;;;1.00;;
59486;SDS011;45298;54.918;73.504;2023-03-31T06:19:16;2.65;;;0.95;;
59486;SDS011;45298;54.918;73.504;2023-03-31T06:21:45;3.50;;;1.30;;
59486;SDS011;45298;54.918;73.504;2023-03-31T06:24:14;3.42;;;1.00;;
59486;SDS011;45298;54.918;73.504;2023-03-31T06:26:43;3.85;;;1.17;;
59486;SDS011;45298;54.918;73.504;2023-03-31T06:29:12;1.73;;;0.93;;
59486;SDS011;45298;54.918;73.504;2023-03-31T06:31:41;2.03;;;0.90;;
59486;SDS011;45298;54.918;73.504;2023-03-31T06:34:10;3.20;;;1.55;;
59486;SDS011;45298;54.918;73.504;2023-03-31T06:36:39;2.45;;;1.02;;
59486;SDS011;45298;54.918;73.504;2023-03-31T06:39:09;1.67;;;1.00;;
59486;SDS011;45298;54.918;73.504;2023-03-31T06:41:37;3.05;;;1.00;;
59486;SDS011;45298;54.918;73.504;2023-03-31T06:44:06;3.97;;;1.10;;
59486;SDS011;45298;54.918;73.504;2023-03-31T06:46:35;3.70;;;1.10;;
59486;SDS011;45298;54.918;73.504;2023-03-31T06:49:04;3.47;;;1.00;;
59486;SDS011;45298;54.918;73.504;2023-03-31T06:51:33;4.93;;;1.45;;
59486;SDS011;45298;54.918;73.504;2023-03-31T06:54:02;6.25;;;1.35;;
59486;SDS011;45298;54.918;73.504;2023-03-31T06:56:31;6.68;;;1.70;;
59486;SDS011;45298;54.918;73.504;2023-03-31T06:59:03;13.32;;;3.38;;
59486;SDS011;45298;54.918;73.504;2023-03-31T07:01:32;12.25;;;2.70;;
59486;SDS011;45298;54.918;73.504;2023-03-31T07:04:04;55.60;;;12.18;;
59486;SDS011;45298;54.918;73.504;2023-03-31T07:06:35;9.82;;;1.83;;
59486;SDS011;45298;54.918;73.504;2023-03-31T07:09:04;10.52;;;3.25;;
59486;SDS011;45298;54.918;73.504;2023-03-31T07:11:36;7.95;;;2.40;;
59486;SDS011;45298;54.918;73.504;2023-03-31T07:14:05;4.85;;;1.70;;
59486;SDS011;45298;54.918;73.504;2023-03-31T07:16:34;2.47;;;1.38;;
59486;SDS011;45298;54.918;73.504;2023-03-31T07:19:03;4.07;;;1.45;;
59486;SDS011;45298;54.918;73.504;2023-03-31T07:21:35;11.90;;;5.63;;
59486;SDS011;45298;54.918;73.504;2023-03-31T07:24:05;3.55;;;1.20;;
59486;SDS011;45298;54.918;73.504;2023-03-31T07:26:34;4.05;;;1.83;;
59486;SDS011;45298;54.918;73.504;2023-03-31T07:29:03;4.35;;;1.73;;
59486;SDS011;45298;54.918;73.504;2023-03-31T07:31:35;3.38;;;1.40;;
59486;SDS011;45298;54.918;73.504;2023-03-31T07:34:04;3.85;;;1.30;;
59486;SDS011;45298;54.918;73.504;2023-03-31T07:36:33;2.97;;;1.20;;
59486;SDS011;45298;54.918;73.504;2023-03-31T07:39:04;3.17;;;1.45;;
59486;SDS011;45298;54.918;73.504;2023-03-31T07:41:34;4.22;;;1.20;;
59486;SDS011;45298;54.918;73.504;2023-03-31T07:44:03;2.28;;;1.20;;
59486;SDS011;45298;54.918;73.504;2023-03-31T07:46:31;3.30;;;1.30;;
59486;SDS011;45298;54.918;73.504;2023-03-31T07:49:00;4.35;;;1.40;;
59486;SDS011;45298;54.918;73.504;2023-03-31T07:51:30;2.50;;;1.27;;
59486;SDS011;45298;54.918;73.504;2023-03-31T07:53:59;3.92;;;1.10;;
59486;SDS011;45298;54.918;73.504;2023-03-31T07:56:28;3.28;;;1.48;;
59486;SDS011;45298;54.918;73.504;2023-03-31T07:58:57;3.25;;;1.30;;
59486;SDS011;45298;54.918;73.504;2023-03-31T08:01:26;2.45;;;1.10;;
59486;SDS011;45298;54.918;73.504;2023-03-31T08:03:56;2.97;;;1.15;;
59486;SDS011;45298;54.918;73.504;2023-03-31T08:06:25;4.50;;;1.58;;
59486;SDS011;45298;54.918;73.504;2023-03-31T08:08:56;5.82;;;1.45;;
59486;SDS011;45298;54.918;73.504;2023-03-31T08:11:25;5.65;;;1.33;;
59486;SDS011;45298;54.918;73.504;2023-03-31T08:13:54;10.98;;;2.08;;
59486;SDS011;45298;54.918;73.504;2023-03-31T08:16:23;3.80;;;1.40;;
59486;SDS011;45298;54.918;73.504;2023-03-31T08:18:52;3.83;;;1.40;;
59486;SDS011;45298;54.918;73.504;2023-03-31T08:21:23;4.55;;;1.38;;
59486;SDS011;45298;54.918;73.504;2023-03-31T08:23:55;2.80;;;1.13;;
59486;SDS011;45298;54.918;73.504;2023-03-31T08:26:24;2.75;;;1.23;;
59486;SDS011;45298;54.918;73.504;2023-03-31T08:28:53;4.47;;;1.42;;
59486;SDS011;45298;54.918;73.504;2023-03-31T08:31:21;7.65;;;1.70;;
59486;SDS011;45298;54.918;73.504;2023-03-31T08:33:53;4.18;;;1.33;;
59486;SDS011;45298;54.918;73.504;2023-03-31T08:36:23;3.45;;;1.45;;
59486;SDS011;45298;54.918;73.504;2023-03-31T08:38:54;6.80;;;1.83;;
59486;SDS011;45298;54.918;73.504;2023-03-31T08:44:21;7.97;;;1.20;;
59486;SDS011;45298;54.918;73.504;2023-03-31T08:47:17;5.00;;;1.30;;
59486;SDS011;45298;54.918;73.504;2023-03-31T08:49:50;5.00;;;1.42;;
59486;SDS011;45298;54.918;73.504;2023-03-31T08:52:23;3.78;;;1.48;;
59486;SDS011;45298;54.918;73.504;2023-03-31T08:55:02;3.88;;;1.30;;
59486;SDS011;45298;54.918;73.504;2023-03-31T09:00:15;8.45;;;1.42;;
59486;SDS011;45298;54.918;73.504;2023-03-31T09:03:11;2.83;;;1.25;;
59486;SDS011;45298;54.918;73.504;2023-03-31T09:08:54;2.63;;;1.35;;
59486;SDS011;45298;54.918;73.504;2023-03-31T09:12:13;5.32;;;1.23;;
59486;SDS011;45298;54.918;73.504;2023-03-31T09:14:25;3.92;;;1.35;;
59486;SDS011;45298;54.918;73.504;2023-03-31T09:17:17;5.10;;;1.30;;
59486;SDS011;45298;54.918;73.504;2023-03-31T09:19:59;9.48;;;3.53;;
59486;SDS011;45298;54.918;73.504;2023-03-31T09:22:46;53.13;;;18.73;;
59486;SDS011;45298;54.918;73.504;2023-03-31T09:25:20;4.85;;;1.45;;
59486;SDS011;45298;54.918;73.504;2023-03-31T09:27:55;6.70;;;2.10;;
59486;SDS011;45298;54.918;73.504;2023-03-31T09:30:26;5.35;;;1.15;;
59486;SDS011;45298;54.918;73.504;2023-03-31T09:33:05;3.67;;;1.27;;
59486;SDS011;45298;54.918;73.504;2023-03-31T09:35:49;3.53;;;1.38;;
59486;SDS011;45298;54.918;73.504;2023-03-31T09:38:18;2.47;;;1.13;;
59486;SDS011;45298;54.918;73.504;2023-03-31T09:40:47;4.35;;;1.50;;
59486;SDS011;45298;54.918;73.504;2023-03-31T09:45:52;22.88;;;9.77;;
59486;SDS011;45298;54.918;73.504;2023-03-31T09:48:26;3.55;;;1.40;;
59486;SDS011;45298;54.918;73.504;2023-03-31T09:51:04;4.57;;;1.83;;
59486;SDS011;45298;54.918;73.504;2023-03-31T09:53:39;6.68;;;2.80;;
59486;SDS011;45298;54.918;73.504;2023-03-31T09:56:13;3.60;;;1.30;;
59486;SDS011;45298;54.918;73.504;2023-03-31T09:59:15;4.55;;;1.35;;
59486;SDS011;45298;54.918;73.504;2023-03-31T10:02:05;4.97;;;1.50;;
59486;SDS011;45298;54.918;73.504;2023-03-31T10:04:45;4.25;;;1.70;;
59486;SDS011;45298;54.918;73.504;2023-03-31T10:07:18;4.32;;;1.63;;
59486;SDS011;45298;54.918;73.504;2023-03-31T10:09:50;7.93;;;1.63;;
59486;SDS011;45298;54.918;73.504;2023-03-31T10:12:22;5.53;;;1.30;;
59486;SDS011;45298;54.918;73.504;2023-03-31T10:15:01;6.18;;;2.03;;
59486;SDS011;45298;54.918;73.504;2023-03-31T10:17:51;8.63;;;1.90;;
59486;SDS011;45298;54.918;73.504;2023-03-31T10:23:02;4.80;;;1.98;;
59486;SDS011;45298;54.918;73.504;2023-03-31T10:25:33;4.47;;;1.52;;
59486;SDS011;45298;54.918;73.504;2023-03-31T10:28:02;6.15;;;1.48;;
59486;SDS011;45298;54.918;73.504;2023-03-31T10:30:33;4.43;;;1.42;;
59486;SDS011;45298;54.918;73.504;2023-03-31T10:33:13;3.72;;;1.63;;
59486;SDS011;45298;54.918;73.504;2023-03-31T10:35:53;9.73;;;3.17;;
59486;SDS011;45298;54.918;73.504;2023-03-31T10:38:29;6.60;;;1.40;;
59486;SDS011;45298;54.918;73.504;2023-03-31T10:41:01;5.57;;;1.50;;
59486;SDS011;45298;54.918;73.504;2023-03-31T10:46:15;3.35;;;1.30;;
59486;SDS011;45298;54.918;73.504;2023-03-31T10:48:45;2.85;;;1.20;;
59486;SDS011;45298;54.918;73.504;2023-03-31T10:51:16;4.95;;;1.40;;
59486;SDS011;45298;54.918;73.504;2023-03-31T10:53:50;5.35;;;1.55;;
59486;SDS011;45298;54.918;73.504;2023-03-31T11:10:43;8.32;;;1.67;;
59486;SDS011;45298;54.918;73.504;2023-03-31T11:16:28;9.48;;;1.73;;
59486;SDS011;45298;54.918;73.504;2023-03-31T11:19:57;5.20;;;1.52;;
59486;SDS011;45298;54.918;73.504;2023-03-31T11:22:10;3.95;;;1.60;;
59486;SDS011;45298;54.918;73.504;2023-03-31T11:36:49;7.38;;;1.92;;
59486;SDS011;45298;54.918;73.504;2023-03-31T11:42:06;5.03;;;1.40;;
59486;SDS011;45298;54.918;73.504;2023-03-31T11:44:47;2.60;;;1.40;;
59486;SDS011;45298;54.918;73.504;2023-03-31T11:47:25;2.83;;;1.45;;
59486;SDS011;45298;54.918;73.504;2023-03-31T11:50:11;11.18;;;4.30;;
59486;SDS011;45298;54.918;73.504;2023-03-31T11:52:52;5.25;;;1.73;;
59486;SDS011;45298;54.918;73.504;2023-03-31T11:55:33;8.20;;;3.35;;
59486;SDS011;45298;54.918;73.504;2023-03-31T11:58:27;6.40;;;1.58;;
59486;SDS011;45298;54.918;73.504;2023-03-31T12:01:13;3.28;;;1.50;;
59486;SDS011;45298;54.918;73.504;2023-03-31T12:11:37;3.00;;;1.30;;
59486;SDS011;45298;54.918;73.504;2023-03-31T12:14:24;4.85;;;1.75;;
59486;SDS011;45298;54.918;73.504;2023-03-31T12:16:57;7.07;;;2.80;;
59486;SDS011;45298;54.918;73.504;2023-03-31T12:19:47;13.88;;;5.63;;
59486;SDS011;45298;54.918;73.504;2023-03-31T12:22:27;12.55;;;4.53;;
59486;SDS011;45298;54.918;73.504;2023-03-31T12:25:01;8.43;;;3.33;;
59486;SDS011;45298;54.918;73.504;2023-03-31T12:30:52;3.30;;;1.55;;
59486;SDS011;45298;54.918;73.504;2023-03-31T12:43:49;2.97;;;1.40;;
59486;SDS011;45298;54.918;73.504;2023-03-31T12:49:15;11.20;;;3.10;;
59486;SDS011;45298;54.918;73.504;2023-03-31T12:54:47;6.18;;;2.53;;
59486;SDS011;45298;54.918;73.504;2023-03-31T12:57:36;4.93;;;1.55;;
59486;SDS011;45298;54.918;73.504;2023-03-31T13:02:37;7.35;;;2.58;;
59486;SDS011;45298;54.918;73.504;2023-03-31T13:08:07;5.47;;;1.83;;
59486;SDS011;45298;54.918;73.504;2023-03-31T13:11:10;4.82;;;1.55;;
59486;SDS011;45298;54.918;73.504;2023-03-31T13:13:32;5.05;;;1.35;;
59486;SDS011;45298;54.918;73.504;2023-03-31T13:16:03;4.82;;;1.52;;
59486;SDS011;45298;54.918;73.504;2023-03-31T13:18:32;9.85;;;2.10;;
59486;SDS011;45298;54.918;73.504;2023-03-31T13:21:02;4.57;;;1.80;;
59486;SDS011;45298;54.918;73.504;2023-03-31T13:23:33;7.28;;;1.83;;
59486;SDS011;45298;54.918;73.504;2023-03-31T13:26:04;11.10;;;4.30;;
59486;SDS011;45298;54.918;73.504;2023-03-31T13:28:37;6.95;;;2.70;;
59486;SDS011;45298;54.918;73.504;2023-03-31T13:31:11;4.10;;;1.40;;
59486;SDS011;45298;54.918;73.504;2023-03-31T13:39:09;10.13;;;2.25;;
59486;SDS011;45298;54.918;73.504;2023-03-31T13:42:01;7.70;;;2.78;;
59486;SDS011;45298;54.918;73.504;2023-03-31T14:05:27;5.75;;;1.70;;
59486;SDS011;45298;54.918;73.504;2023-03-31T14:11:23;6.30;;;1.85;;
59486;SDS011;45298;54.918;73.504;2023-03-31T14:13:57;4.72;;;1.63;;
59486;SDS011;45298;54.918;73.504;2023-03-31T14:16:26;4.40;;;1.50;;
59486;SDS011;45298;54.918;73.504;2023-03-31T14:22:31;7.70;;;2.00;;
59486;SDS011;45298;54.918;73.504;2023-03-31T14:24:54;4.13;;;1.52;;
59486;SDS011;45298;54.918;73.504;2023-03-31T14:36:08;13.13;;;2.63;;
59486;SDS011;45298;54.918;73.504;2023-03-31T14:38:42;11.52;;;2.80;;
59486;SDS011;45298;54.918;73.504;2023-03-31T14:41:14;13.13;;;3.40;;
59486;SDS011;45298;54.918;73.504;2023-03-31T14:43:57;14.55;;;3.38;;
59486;SDS011;45298;54.918;73.504;2023-03-31T14:46:30;9.20;;;2.70;;
59486;SDS011;45298;54.918;73.504;2023-03-31T14:49:45;10.50;;;3.05;;
59486;SDS011;45298;54.918;73.504;2023-03-31T14:52:16;11.15;;;3.78;;
59486;SDS011;45298;54.918;73.504;2023-03-31T14:54:48;21.80;;;4.55;;
59486;SDS011;45298;54.918;73.504;2023-03-31T14:57:22;12.35;;;4.82;;
59486;SDS011;45298;54.918;73.504;2023-03-31T15:00:02;21.25;;;5.38;;
59486;SDS011;45298;54.918;73.504;2023-03-31T15:02:39;20.40;;;5.07;;
59486;SDS011;45298;54.918;73.504;2023-03-31T15:05:14;9.98;;;3.83;;
59486;SDS011;45298;54.918;73.504;2023-03-31T15:07:49;13.73;;;4.65;;
59486;SDS011;45298;54.918;73.504;2023-03-31T15:10:19;10.40;;;4.28;;
59486;SDS011;45298;54.918;73.504;2023-03-31T15:12:49;8.43;;;4.00;;
59486;SDS011;45298;54.918;73.504;2023-03-31T15:15:18;15.75;;;4.18;;
59486;SDS011;45298;54.918;73.504;2023-03-31T15:17:48;14.68;;;4.53;;
59486;SDS011;45298;54.918;73.504;2023-03-31T15:22:55;9.90;;;3.45;;
59486;SDS011;45298;54.918;73.504;2023-03-31T15:25:25;14.75;;;3.78;;
59486;SDS011;45298;54.918;73.504;2023-03-31T15:28:02;11.57;;;3.78;;
59486;SDS011;45298;54.918;73.504;2023-03-31T15:30:34;8.52;;;3.80;;
59486;SDS011;45298;54.918;73.504;2023-03-31T15:33:06;10.85;;;3.88;;
59486;SDS011;45298;54.918;73.504;2023-03-31T15:35:46;11.82;;;4.20;;
59486;SDS011;45298;54.918;73.504;2023-03-31T15:38:16;12.50;;;3.75;;
59486;SDS011;45298;54.918;73.504;2023-03-31T15:40:48;11.35;;;4.30;;
59486;SDS011;45298;54.918;73.504;2023-03-31T15:46:24;15.80;;;5.72;;
59486;SDS011;45298;54.918;73.504;2023-03-31T15:49:45;17.00;;;5.78;;
59486;SDS011;45298;54.918;73.504;2023-03-31T15:52:21;15.27;;;5.60;;
59486;SDS011;45298;54.918;73.504;2023-03-31T15:55:12;14.07;;;5.78;;
59486;SDS011;45298;54.918;73.504;2023-03-31T15:57:50;12.43;;;5.43;;
59486;SDS011;45298;54.918;73.504;2023-03-31T16:00:42;15.60;;;5.65;;
59486;SDS011;45298;54.918;73.504;2023-03-31T16:03:27;15.00;;;5.50;;
59486;SDS011;45298;54.918;73.504;2023-03-31T16:06:07;14.95;;;5.97;;
59486;SDS011;45298;54.918;73.504;2023-03-31T16:11:37;14.77;;;5.88;;
59486;SDS011;45298;54.918;73.504;2023-03-31T16:14:26;16.63;;;6.10;;
59486;SDS011;45298;54.918;73.504;2023-03-31T16:17:02;19.25;;;6.75;;
59486;SDS011;45298;54.918;73.504;2023-03-31T16:19:44;50.35;;;18.65;;
59486;SDS011;45298;54.918;73.504;2023-03-31T16:22:20;49.35;;;17.13;;
59486;SDS011;45298;54.918;73.504;2023-03-31T16:24:53;28.48;;;9.82;;
59486;SDS011;45298;54.918;73.504;2023-03-31T16:27:22;22.00;;;7.53;;
59486;SDS011;45298;54.918;73.504;2023-03-31T16:30:03;49.67;;;16.02;;
59486;SDS011;45298;54.918;73.504;2023-03-31T16:32:35;75.10;;;23.83;;
59486;SDS011;45298;54.918;73.504;2023-03-31T16:35:05;30.38;;;11.30;;
59486;SDS011;45298;54.918;73.504;2023-03-31T16:37:34;44.15;;;15.63;;
59486;SDS011;45298;54.918;73.504;2023-03-31T16:40:04;61.05;;;19.75;;
59486;SDS011;45298;54.918;73.504;2023-03-31T16:42:34;31.30;;;11.90;;
59486;SDS011;45298;54.918;73.504;2023-03-31T16:45:03;74.30;;;27.70;;
59486;SDS011;45298;54.918;73.504;2023-03-31T16:47:41;112.55;;;39.28;;
59486;SDS011;45298;54.918;73.504;2023-03-31T16:50:12;101.45;;;34.53;;
59486;SDS011;45298;54.918;73.504;2023-03-31T16:52:42;153.02;;;49.47;;
59486;SDS011;45298;54.918;73.504;2023-03-31T16:55:12;153.27;;;50.17;;
59486;SDS011;45298;54.918;73.504;2023-03-31T16:57:41;89.68;;;29.77;;
59486;SDS011;45298;54.918;73.504;2023-03-31T17:00:10;62.72;;;22.55;;
59486;SDS011;45298;54.918;73.504;2023-03-31T17:02:40;38.67;;;14.15;;
59486;SDS011;45298;54.918;73.504;2023-03-31T17:05:09;107.82;;;36.22;;
59486;SDS011;45298;54.918;73.504;2023-03-31T17:07:40;46.60;;;17.85;;
59486;SDS011;45298;54.918;73.504;2023-03-31T17:10:09;88.50;;;31.33;;
59486;SDS011;45298;54.918;73.504;2023-03-31T17:12:40;22.75;;;9.40;;
59486;SDS011;45298;54.918;73.504;2023-03-31T17:15:09;34.75;;;14.05;;
59486;SDS011;45298;54.918;73.504;2023-03-31T17:17:38;27.50;;;9.73;;
59486;SDS011;45298;54.918;73.504;2023-03-31T17:20:08;19.02;;;7.20;;
59486;SDS011;45298;54.918;73.504;2023-03-31T17:22:38;31.92;;;10.80;;
59486;SDS011;45298;54.918;73.504;2023-03-31T17:25:08;12.05;;;4.45;;
59486;SDS011;45298;54.918;73.504;2023-03-31T17:27:39;65.80;;;21.42;;
59486;SDS011;45298;54.918;73.504;2023-03-31T17:30:09;130.65;;;40.17;;
59486;SDS011;45298;54.918;73.504;2023-03-31T17:32:38;61.42;;;22.33;;
59486;SDS011;45298;54.918;73.504;2023-03-31T17:35:08;41.22;;;15.40;;
59486;SDS011;45298;54.918;73.504;2023-03-31T17:37:38;161.48;;;51.40;;
59486;SDS011;45298;54.918;73.504;2023-03-31T17:40:07;38.70;;;14.63;;
59486;SDS011;45298;54.918;73.504;2023-03-31T17:42:37;42.28;;;14.40;;
59486;SDS011;45298;54.918;73.504;2023-03-31T17:45:06;29.73;;;11.20;;
59486;SDS011;45298;54.918;73.504;2023-03-31T17:47:38;36.65;;;13.30;;
59486;SDS011;45298;54.918;73.504;2023-03-31T17:50:09;16.95;;;5.28;;
59486;SDS011;45298;54.918;73.504;2023-03-31T17:52:39;10.63;;;4.70;;
59486;SDS011;45298;54.918;73.504;2023-03-31T17:55:08;41.92;;;14.75;;
59486;SDS011;45298;54.918;73.504;2023-03-31T17:57:37;12.02;;;3.58;;
59486;SDS011;45298;54.918;73.504;2023-03-31T18:00:08;61.25;;;20.38;;